This is the latest recevied weather packets stored in our database for station/object KF0PEC-13. If no packets are shown the sender has not sent any weather packets the latest 10 day(s).
| Time | Temp. | Humidity | Pressure | Rain* | Wind** | Luminosity | Snow |
|---|---|---|---|---|---|---|---|
| 1777301123 | 13.89° C | 33% | 1011 hPa | 0 mm | - | - | - |
| 1777299916 | 13.33° C | 33% | 1010.9 hPa | 0 mm | - | - | - |
| 1777291521 | 4.44° C | 56% | 1009.4 hPa | 0 mm | - | - | - |
| 1777287918 | 5° C | 58% | 1008.2 hPa | 0 mm | - | - | - |
| 1777281315 | 6.67° C | 46% | 1007.2 hPa | 0 mm | - | - | - |
| 1777280128 | 7.78° C | 44% | 1007.1 hPa | 0 mm | - | - | - |
| 1777277129 | 5.56° C | 54% | 1007.3 hPa | 0 mm | - | - | - |
| 1777270526 | 7.22° C | 55% | 1007.2 hPa | 0 mm | - | - | - |
| 1777266923 | 8.33° C | 51% | 1007.2 hPa | 0 mm | - | - | - |
| 1777265131 | 8.89° C | 50% | 1006.9 hPa | 0 mm | - | - | - |
| 1777263924 | 8.89° C | 52% | 1007.2 hPa | 0 mm | - | - | - |
| 1777259132 | 10° C | 51% | 1006.6 hPa | 0 mm | - | - | - |
| 1777258528 | 10° C | 51% | 1006.4 hPa | 0 mm | - | - | - |
| 1777255549 | 11.11° C | 49% | 1005.5 hPa | 0 mm | - | - | - |
| 1777252529 | 15° C | 32% | 1004.4 hPa | 0 mm | - | - | - |
| 1777251341 | 15.56° C | 28% | 1003.5 hPa | 0 mm | - | - | - |
| 1777250717 | 15.56° C | 30% | 1003.5 hPa | 0 mm | - | - | - |
| 1777245321 | 15° C | 42% | 1002.9 hPa | 0 mm | - | - | - |
| 1777244716 | 15.56° C | 41% | 1002.9 hPa | 0 mm | - | - | - |
| 1777241133 | 16.67° C | 36% | 1002.6 hPa | 0 mm | - | - | - |
| 1777227921 | 12.22° C | 52% | 1006.3 hPa | 0 mm | - | - | - |
| 1777226129 | 11.67° C | 54% | 1006.9 hPa | 0 mm | - | - | - |
| 1777224317 | 10° C | 61% | 1007.5 hPa | 0 mm | - | - | - |
| 1777221920 | 7.22° C | 72% | 1008.4 hPa | 0 mm | - | - | - |
| 1777221316 | 6.67° C | 74% | 1008.5 hPa | 0 mm | - | - | - |
* Rain latest hour (hover to see other rain measurements)
** Current wind speed in m/s (hover to see current wind gust speed)